sensor_id;sensor_type;location;lat;lon;timestamp;P1;durP1;ratioP1;P2;durP2;ratioP2
177;SDS011;77;48.792;9.032;2023-08-20T00:01:44;19.70;;;11.77;;
177;SDS011;77;48.792;9.032;2023-08-20T00:04:11;17.40;;;12.00;;
177;SDS011;77;48.792;9.032;2023-08-20T00:06:37;16.67;;;12.03;;
177;SDS011;77;48.792;9.032;2023-08-20T00:09:03;17.10;;;12.00;;
177;SDS011;77;48.792;9.032;2023-08-20T00:11:28;16.23;;;12.50;;
177;SDS011;77;48.792;9.032;2023-08-20T00:13:53;19.77;;;10.80;;
177;SDS011;77;48.792;9.032;2023-08-20T00:16:18;16.90;;;11.80;;
177;SDS011;77;48.792;9.032;2023-08-20T00:18:44;16.60;;;11.20;;
177;SDS011;77;48.792;9.032;2023-08-20T00:21:11;18.30;;;11.90;;
177;SDS011;77;48.792;9.032;2023-08-20T00:23:36;14.77;;;11.50;;
177;SDS011;77;48.792;9.032;2023-08-20T00:26:01;16.20;;;12.03;;
177;SDS011;77;48.792;9.032;2023-08-20T00:28:26;16.00;;;12.10;;
177;SDS011;77;48.792;9.032;2023-08-20T00:30:52;17.93;;;11.50;;
177;SDS011;77;48.792;9.032;2023-08-20T00:33:17;16.80;;;12.03;;
177;SDS011;77;48.792;9.032;2023-08-20T00:35:42;14.50;;;11.43;;
177;SDS011;77;48.792;9.032;2023-08-20T00:38:08;15.87;;;11.80;;
177;SDS011;77;48.792;9.032;2023-08-20T00:40:34;17.33;;;11.83;;
177;SDS011;77;48.792;9.032;2023-08-20T00:42:59;15.43;;;11.50;;
177;SDS011;77;48.792;9.032;2023-08-20T00:45:24;18.93;;;12.40;;
177;SDS011;77;48.792;9.032;2023-08-20T00:47:49;15.30;;;11.47;;
177;SDS011;77;48.792;9.032;2023-08-20T00:50:15;20.93;;;11.70;;
177;SDS011;77;48.792;9.032;2023-08-20T00:52:41;25.23;;;12.37;;
177;SDS011;77;48.792;9.032;2023-08-20T00:55:08;16.03;;;12.30;;
177;SDS011;77;48.792;9.032;2023-08-20T00:57:34;18.30;;;12.47;;
177;SDS011;77;48.792;9.032;2023-08-20T00:59:59;24.07;;;12.77;;
177;SDS011;77;48.792;9.032;2023-08-20T01:02:24;16.20;;;12.27;;
177;SDS011;77;48.792;9.032;2023-08-20T01:04:50;15.83;;;11.97;;
177;SDS011;77;48.792;9.032;2023-08-20T01:07:17;17.87;;;11.70;;
177;SDS011;77;48.792;9.032;2023-08-20T01:09:48;16.70;;;11.87;;
177;SDS011;77;48.792;9.032;2023-08-20T01:12:16;17.47;;;12.03;;
177;SDS011;77;48.792;9.032;2023-08-20T01:14:42;17.57;;;12.33;;
177;SDS011;77;48.792;9.032;2023-08-20T01:17:07;17.43;;;11.97;;
177;SDS011;77;48.792;9.032;2023-08-20T01:19:32;17.37;;;12.07;;
177;SDS011;77;48.792;9.032;2023-08-20T01:22:05;16.07;;;11.03;;
177;SDS011;77;48.792;9.032;2023-08-20T01:24:44;16.37;;;12.30;;
177;SDS011;77;48.792;9.032;2023-08-20T01:27:19;17.00;;;12.47;;
177;SDS011;77;48.792;9.032;2023-08-20T01:29:49;21.10;;;12.23;;
177;SDS011;77;48.792;9.032;2023-08-20T01:32:14;15.83;;;12.30;;
177;SDS011;77;48.792;9.032;2023-08-20T01:34:39;14.53;;;11.50;;
177;SDS011;77;48.792;9.032;2023-08-20T01:37:04;17.03;;;11.93;;
177;SDS011;77;48.792;9.032;2023-08-20T01:39:29;16.10;;;12.57;;
177;SDS011;77;48.792;9.032;2023-08-20T01:41:54;16.73;;;12.50;;
177;SDS011;77;48.792;9.032;2023-08-20T01:44:20;17.60;;;12.37;;
177;SDS011;77;48.792;9.032;2023-08-20T01:46:46;16.30;;;12.17;;
177;SDS011;77;48.792;9.032;2023-08-20T01:49:11;16.30;;;11.83;;
177;SDS011;77;48.792;9.032;2023-08-20T01:51:36;17.40;;;12.50;;
177;SDS011;77;48.792;9.032;2023-08-20T01:54:02;18.03;;;12.67;;
177;SDS011;77;48.792;9.032;2023-08-20T01:56:27;17.57;;;12.90;;
177;SDS011;77;48.792;9.032;2023-08-20T01:58:52;18.40;;;13.00;;
177;SDS011;77;48.792;9.032;2023-08-20T02:01:17;16.20;;;12.37;;
177;SDS011;77;48.792;9.032;2023-08-20T02:03:44;18.30;;;12.67;;
177;SDS011;77;48.792;9.032;2023-08-20T02:06:09;16.83;;;12.77;;
177;SDS011;77;48.792;9.032;2023-08-20T02:08:34;16.67;;;10.00;;
177;SDS011;77;48.792;9.032;2023-08-20T02:11:00;21.70;;;12.63;;
177;SDS011;77;48.792;9.032;2023-08-20T02:13:25;19.23;;;13.30;;
177;SDS011;77;48.792;9.032;2023-08-20T02:15:56;20.23;;;12.90;;
177;SDS011;77;48.792;9.032;2023-08-20T02:18:21;18.13;;;12.40;;
177;SDS011;77;48.792;9.032;2023-08-20T02:20:48;15.23;;;12.13;;
177;SDS011;77;48.792;9.032;2023-08-20T02:23:13;16.83;;;12.90;;
177;SDS011;77;48.792;9.032;2023-08-20T02:25:38;17.20;;;13.20;;
177;SDS011;77;48.792;9.032;2023-08-20T02:28:03;16.87;;;12.70;;
177;SDS011;77;48.792;9.032;2023-08-20T02:30:29;24.40;;;13.00;;
177;SDS011;77;48.792;9.032;2023-08-20T02:32:54;18.93;;;12.40;;
177;SDS011;77;48.792;9.032;2023-08-20T02:35:19;18.27;;;12.40;;
177;SDS011;77;48.792;9.032;2023-08-20T02:37:45;20.30;;;12.50;;
177;SDS011;77;48.792;9.032;2023-08-20T02:40:11;21.37;;;12.47;;
177;SDS011;77;48.792;9.032;2023-08-20T02:42:36;18.07;;;12.20;;
177;SDS011;77;48.792;9.032;2023-08-20T02:45:01;16.53;;;12.77;;
177;SDS011;77;48.792;9.032;2023-08-20T02:47:26;19.03;;;12.67;;
177;SDS011;77;48.792;9.032;2023-08-20T02:49:51;20.10;;;13.00;;
177;SDS011;77;48.792;9.032;2023-08-20T02:52:17;18.67;;;12.70;;
177;SDS011;77;48.792;9.032;2023-08-20T02:54:43;17.53;;;13.07;;
177;SDS011;77;48.792;9.032;2023-08-20T02:57:08;15.90;;;12.50;;
177;SDS011;77;48.792;9.032;2023-08-20T02:59:33;18.67;;;12.60;;
177;SDS011;77;48.792;9.032;2023-08-20T03:01:59;18.90;;;12.70;;
177;SDS011;77;48.792;9.032;2023-08-20T03:04:24;19.73;;;12.10;;
177;SDS011;77;48.792;9.032;2023-08-20T03:06:49;16.90;;;12.10;;
177;SDS011;77;48.792;9.032;2023-08-20T03:09:14;17.20;;;12.50;;
177;SDS011;77;48.792;9.032;2023-08-20T03:11:40;15.97;;;12.13;;
177;SDS011;77;48.792;9.032;2023-08-20T03:14:06;17.87;;;12.60;;
177;SDS011;77;48.792;9.032;2023-08-20T03:16:31;17.57;;;13.20;;
177;SDS011;77;48.792;9.032;2023-08-20T03:18:56;19.20;;;12.83;;
177;SDS011;77;48.792;9.032;2023-08-20T03:21:21;17.37;;;12.53;;
177;SDS011;77;48.792;9.032;2023-08-20T03:23:46;20.00;;;12.93;;
177;SDS011;77;48.792;9.032;2023-08-20T03:26:11;18.73;;;13.10;;
177;SDS011;77;48.792;9.032;2023-08-20T03:28:38;15.53;;;11.97;;
177;SDS011;77;48.792;9.032;2023-08-20T03:31:03;18.40;;;13.00;;
177;SDS011;77;48.792;9.032;2023-08-20T03:33:28;16.97;;;12.90;;
177;SDS011;77;48.792;9.032;2023-08-20T03:35:53;16.93;;;12.17;;
177;SDS011;77;48.792;9.032;2023-08-20T03:38:19;17.23;;;12.80;;
177;SDS011;77;48.792;9.032;2023-08-20T03:40:44;21.43;;;12.53;;
177;SDS011;77;48.792;9.032;2023-08-20T03:43:09;16.53;;;12.43;;
177;SDS011;77;48.792;9.032;2023-08-20T03:45:35;15.50;;;12.37;;
177;SDS011;77;48.792;9.032;2023-08-20T03:48:01;16.57;;;12.40;;
177;SDS011;77;48.792;9.032;2023-08-20T03:50:26;16.83;;;12.67;;
177;SDS011;77;48.792;9.032;2023-08-20T03:52:51;19.13;;;12.90;;
177;SDS011;77;48.792;9.032;2023-08-20T03:55:16;20.03;;;13.20;;
177;SDS011;77;48.792;9.032;2023-08-20T03:57:41;25.03;;;13.40;;
177;SDS011;77;48.792;9.032;2023-08-20T04:00:07;18.13;;;12.37;;
177;SDS011;77;48.792;9.032;2023-08-20T04:02:33;18.20;;;13.00;;
177;SDS011;77;48.792;9.032;2023-08-20T04:04:59;17.30;;;12.33;;
177;SDS011;77;48.792;9.032;2023-08-20T04:07:24;19.20;;;12.60;;
177;SDS011;77;48.792;9.032;2023-08-20T04:09:49;17.30;;;12.83;;
177;SDS011;77;48.792;9.032;2023-08-20T04:12:14;22.07;;;12.57;;
177;SDS011;77;48.792;9.032;2023-08-20T04:14:39;18.87;;;12.33;;
177;SDS011;77;48.792;9.032;2023-08-20T04:17:04;16.97;;;12.50;;
177;SDS011;77;48.792;9.032;2023-08-20T04:19:31;20.07;;;12.47;;
177;SDS011;77;48.792;9.032;2023-08-20T04:21:56;20.63;;;13.40;;
177;SDS011;77;48.792;9.032;2023-08-20T04:24:21;17.20;;;13.30;;
177;SDS011;77;48.792;9.032;2023-08-20T04:26:46;16.90;;;12.50;;
177;SDS011;77;48.792;9.032;2023-08-20T04:29:12;15.53;;;12.50;;
177;SDS011;77;48.792;9.032;2023-08-20T04:31:37;17.57;;;12.67;;
177;SDS011;77;48.792;9.032;2023-08-20T04:34:02;17.30;;;12.37;;
177;SDS011;77;48.792;9.032;2023-08-20T04:36:29;17.20;;;12.40;;
177;SDS011;77;48.792;9.032;2023-08-20T04:38:54;17.13;;;11.87;;
177;SDS011;77;48.792;9.032;2023-08-20T04:41:19;21.13;;;13.17;;
177;SDS011;77;48.792;9.032;2023-08-20T04:43:44;15.60;;;12.03;;
177;SDS011;77;48.792;9.032;2023-08-20T04:46:09;14.83;;;11.47;;
177;SDS011;77;48.792;9.032;2023-08-20T04:48:34;16.53;;;12.23;;
177;SDS011;77;48.792;9.032;2023-08-20T04:51:00;22.60;;;12.50;;
177;SDS011;77;48.792;9.032;2023-08-20T04:53:26;16.93;;;11.97;;
177;SDS011;77;48.792;9.032;2023-08-20T04:55:51;20.10;;;11.90;;
177;SDS011;77;48.792;9.032;2023-08-20T04:58:17;20.37;;;12.90;;
177;SDS011;77;48.792;9.032;2023-08-20T05:00:42;14.97;;;11.93;;
177;SDS011;77;48.792;9.032;2023-08-20T05:03:07;20.00;;;12.37;;
177;SDS011;77;48.792;9.032;2023-08-20T05:05:32;20.57;;;12.47;;
177;SDS011;77;48.792;9.032;2023-08-20T05:07:57;17.00;;;12.83;;
177;SDS011;77;48.792;9.032;2023-08-20T05:10:24;19.20;;;12.47;;
177;SDS011;77;48.792;9.032;2023-08-20T05:12:49;16.77;;;12.90;;
177;SDS011;77;48.792;9.032;2023-08-20T05:15:14;17.17;;;12.33;;
177;SDS011;77;48.792;9.032;2023-08-20T05:17:39;19.90;;;13.13;;
177;SDS011;77;48.792;9.032;2023-08-20T05:20:05;19.07;;;12.20;;
177;SDS011;77;48.792;9.032;2023-08-20T05:22:30;20.83;;;13.80;;
177;SDS011;77;48.792;9.032;2023-08-20T05:24:55;21.03;;;12.43;;
177;SDS011;77;48.792;9.032;2023-08-20T05:27:22;18.00;;;12.60;;
177;SDS011;77;48.792;9.032;2023-08-20T05:29:47;18.97;;;13.10;;
177;SDS011;77;48.792;9.032;2023-08-20T05:32:12;17.27;;;12.47;;
177;SDS011;77;48.792;9.032;2023-08-20T05:34:37;17.10;;;12.10;;
177;SDS011;77;48.792;9.032;2023-08-20T05:37:03;16.87;;;11.93;;
177;SDS011;77;48.792;9.032;2023-08-20T05:39:29;16.90;;;12.17;;
177;SDS011;77;48.792;9.032;2023-08-20T05:41:54;17.60;;;12.93;;
177;SDS011;77;48.792;9.032;2023-08-20T05:44:21;17.90;;;12.70;;
177;SDS011;77;48.792;9.032;2023-08-20T05:46:46;18.47;;;13.47;;
177;SDS011;77;48.792;9.032;2023-08-20T05:49:12;16.50;;;13.13;;
177;SDS011;77;48.792;9.032;2023-08-20T05:51:37;19.87;;;12.37;;
177;SDS011;77;48.792;9.032;2023-08-20T05:54:02;16.10;;;13.03;;
177;SDS011;77;48.792;9.032;2023-08-20T05:56:27;21.90;;;12.80;;
177;SDS011;77;48.792;9.032;2023-08-20T05:58:52;18.63;;;13.23;;
177;SDS011;77;48.792;9.032;2023-08-20T06:01:19;19.27;;;13.50;;
177;SDS011;77;48.792;9.032;2023-08-20T06:03:44;17.63;;;13.23;;
177;SDS011;77;48.792;9.032;2023-08-20T06:06:09;18.50;;;14.13;;
177;SDS011;77;48.792;9.032;2023-08-20T06:08:34;18.80;;;13.70;;
177;SDS011;77;48.792;9.032;2023-08-20T06:11:00;23.20;;;14.23;;
177;SDS011;77;48.792;9.032;2023-08-20T06:13:25;21.00;;;14.87;;
177;SDS011;77;48.792;9.032;2023-08-20T06:15:50;24.73;;;14.63;;
177;SDS011;77;48.792;9.032;2023-08-20T06:18:16;21.17;;;14.13;;
177;SDS011;77;48.792;9.032;2023-08-20T06:20:42;20.60;;;14.40;;
177;SDS011;77;48.792;9.032;2023-08-20T06:23:07;20.30;;;13.93;;
177;SDS011;77;48.792;9.032;2023-08-20T06:25:32;17.63;;;13.90;;
177;SDS011;77;48.792;9.032;2023-08-20T06:27:57;18.37;;;13.80;;
177;SDS011;77;48.792;9.032;2023-08-20T06:30:22;18.80;;;13.93;;
177;SDS011;77;48.792;9.032;2023-08-20T06:32:48;18.60;;;13.40;;
177;SDS011;77;48.792;9.032;2023-08-20T06:35:14;19.53;;;13.03;;
177;SDS011;77;48.792;9.032;2023-08-20T06:37:39;16.67;;;12.87;;
177;SDS011;77;48.792;9.032;2023-08-20T06:40:05;22.17;;;13.70;;
177;SDS011;77;48.792;9.032;2023-08-20T06:42:30;21.97;;;14.10;;
177;SDS011;77;48.792;9.032;2023-08-20T06:44:56;21.33;;;14.07;;
177;SDS011;77;48.792;9.032;2023-08-20T06:47:21;18.83;;;13.83;;
177;SDS011;77;48.792;9.032;2023-08-20T06:49:46;17.83;;;13.03;;
177;SDS011;77;48.792;9.032;2023-08-20T06:52:12;20.90;;;13.97;;
177;SDS011;77;48.792;9.032;2023-08-20T06:54:38;18.40;;;12.80;;
177;SDS011;77;48.792;9.032;2023-08-20T06:57:03;19.67;;;13.57;;
177;SDS011;77;48.792;9.032;2023-08-20T06:59:28;20.63;;;13.03;;
177;SDS011;77;48.792;9.032;2023-08-20T07:01:53;17.00;;;12.83;;
177;SDS011;77;48.792;9.032;2023-08-20T07:04:19;19.97;;;13.50;;
177;SDS011;77;48.792;9.032;2023-08-20T07:06:44;19.80;;;13.23;;
177;SDS011;77;48.792;9.032;2023-08-20T07:09:10;19.20;;;13.17;;
177;SDS011;77;48.792;9.032;2023-08-20T07:11:35;20.20;;;13.73;;
177;SDS011;77;48.792;9.032;2023-08-20T07:14:01;19.93;;;13.37;;
177;SDS011;77;48.792;9.032;2023-08-20T07:16:26;19.93;;;13.70;;
177;SDS011;77;48.792;9.032;2023-08-20T07:18:51;18.13;;;12.80;;
177;SDS011;77;48.792;9.032;2023-08-20T07:21:16;17.33;;;12.67;;
177;SDS011;77;48.792;9.032;2023-08-20T07:23:41;18.20;;;13.20;;
177;SDS011;77;48.792;9.032;2023-08-20T07:26:08;22.70;;;13.43;;
177;SDS011;77;48.792;9.032;2023-08-20T07:28:34;23.80;;;12.57;;
177;SDS011;77;48.792;9.032;2023-08-20T07:30:59;19.87;;;12.70;;
177;SDS011;77;48.792;9.032;2023-08-20T07:33:24;19.87;;;12.83;;
177;SDS011;77;48.792;9.032;2023-08-20T07:35:50;23.40;;;13.90;;
177;SDS011;77;48.792;9.032;2023-08-20T07:38:15;20.13;;;13.70;;
177;SDS011;77;48.792;9.032;2023-08-20T07:40:40;21.63;;;13.73;;
177;SDS011;77;48.792;9.032;2023-08-20T07:43:06;20.37;;;13.60;;
177;SDS011;77;48.792;9.032;2023-08-20T07:45:32;17.13;;;13.37;;
177;SDS011;77;48.792;9.032;2023-08-20T07:47:57;20.50;;;13.13;;
177;SDS011;77;48.792;9.032;2023-08-20T07:50:22;19.43;;;12.50;;
177;SDS011;77;48.792;9.032;2023-08-20T07:52:47;22.87;;;12.27;;
177;SDS011;77;48.792;9.032;2023-08-20T07:55:12;21.20;;;13.10;;
177;SDS011;77;48.792;9.032;2023-08-20T07:57:37;19.83;;;13.37;;
177;SDS011;77;48.792;9.032;2023-08-20T08:00:05;19.93;;;13.30;;
177;SDS011;77;48.792;9.032;2023-08-20T08:02:30;17.97;;;13.13;;
177;SDS011;77;48.792;9.032;2023-08-20T08:04:55;20.90;;;12.93;;
177;SDS011;77;48.792;9.032;2023-08-20T08:07:20;16.50;;;11.70;;
177;SDS011;77;48.792;9.032;2023-08-20T08:09:45;18.60;;;13.63;;
177;SDS011;77;48.792;9.032;2023-08-20T08:12:11;16.17;;;12.73;;
177;SDS011;77;48.792;9.032;2023-08-20T08:14:36;21.40;;;13.70;;
177;SDS011;77;48.792;9.032;2023-08-20T08:17:02;21.47;;;13.67;;
177;SDS011;77;48.792;9.032;2023-08-20T08:19:28;16.93;;;12.50;;
177;SDS011;77;48.792;9.032;2023-08-20T08:21:53;22.20;;;14.30;;
177;SDS011;77;48.792;9.032;2023-08-20T08:24:18;16.90;;;12.37;;
177;SDS011;77;48.792;9.032;2023-08-20T08:26:43;24.03;;;14.57;;
177;SDS011;77;48.792;9.032;2023-08-20T08:29:08;21.20;;;13.73;;
177;SDS011;77;48.792;9.032;2023-08-20T08:31:33;18.90;;;13.27;;
177;SDS011;77;48.792;9.032;2023-08-20T08:34:00;20.27;;;14.10;;
177;SDS011;77;48.792;9.032;2023-08-20T08:36:26;18.17;;;13.50;;
177;SDS011;77;48.792;9.032;2023-08-20T08:38:51;21.23;;;14.10;;
177;SDS011;77;48.792;9.032;2023-08-20T08:41:16;18.93;;;13.30;;
177;SDS011;77;48.792;9.032;2023-08-20T08:43:42;17.83;;;13.80;;
177;SDS011;77;48.792;9.032;2023-08-20T08:46:07;17.03;;;13.23;;
177;SDS011;77;48.792;9.032;2023-08-20T08:48:33;20.37;;;13.23;;
177;SDS011;77;48.792;9.032;2023-08-20T08:51:00;21.07;;;12.93;;
177;SDS011;77;48.792;9.032;2023-08-20T08:53:25;20.10;;;12.70;;
177;SDS011;77;48.792;9.032;2023-08-20T08:55:51;16.30;;;13.20;;
177;SDS011;77;48.792;9.032;2023-08-20T08:58:16;20.00;;;13.90;;
177;SDS011;77;48.792;9.032;2023-08-20T09:00:41;18.37;;;13.70;;
177;SDS011;77;48.792;9.032;2023-08-20T09:03:06;17.40;;;12.43;;
177;SDS011;77;48.792;9.032;2023-08-20T09:05:31;15.33;;;12.73;;
177;SDS011;77;48.792;9.032;2023-08-20T09:07:58;18.40;;;13.30;;
177;SDS011;77;48.792;9.032;2023-08-20T09:10:25;20.60;;;14.50;;
177;SDS011;77;48.792;9.032;2023-08-20T09:12:50;17.70;;;13.23;;
177;SDS011;77;48.792;9.032;2023-08-20T09:15:15;18.90;;;14.30;;
177;SDS011;77;48.792;9.032;2023-08-20T09:17:41;21.13;;;13.47;;
177;SDS011;77;48.792;9.032;2023-08-20T09:20:06;20.43;;;14.70;;
177;SDS011;77;48.792;9.032;2023-08-20T09:22:32;20.90;;;13.00;;
177;SDS011;77;48.792;9.032;2023-08-20T09:24:58;17.67;;;12.20;;
177;SDS011;77;48.792;9.032;2023-08-20T09:27:24;15.87;;;11.93;;
177;SDS011;77;48.792;9.032;2023-08-20T09:29:49;16.27;;;11.90;;
177;SDS011;77;48.792;9.032;2023-08-20T09:32:15;15.63;;;12.13;;
177;SDS011;77;48.792;9.032;2023-08-20T09:34:41;21.17;;;11.70;;
177;SDS011;77;48.792;9.032;2023-08-20T09:37:09;17.00;;;12.07;;
177;SDS011;77;48.792;9.032;2023-08-20T09:39:34;17.40;;;11.87;;
177;SDS011;77;48.792;9.032;2023-08-20T09:42:01;15.50;;;10.80;;
177;SDS011;77;48.792;9.032;2023-08-20T09:44:26;17.87;;;10.40;;
177;SDS011;77;48.792;9.032;2023-08-20T09:46:54;14.87;;;10.80;;
177;SDS011;77;48.792;9.032;2023-08-20T09:49:20;19.60;;;10.97;;
177;SDS011;77;48.792;9.032;2023-08-20T09:51:47;14.70;;;11.63;;
177;SDS011;77;48.792;9.032;2023-08-20T09:54:15;17.87;;;11.30;;
177;SDS011;77;48.792;9.032;2023-08-20T09:56:44;17.73;;;11.73;;
177;SDS011;77;48.792;9.032;2023-08-20T09:59:12;14.60;;;11.07;;
177;SDS011;77;48.792;9.032;2023-08-20T10:01:38;15.23;;;11.30;;
177;SDS011;77;48.792;9.032;2023-08-20T10:04:03;15.70;;;10.63;;
177;SDS011;77;48.792;9.032;2023-08-20T10:06:29;16.23;;;11.13;;
177;SDS011;77;48.792;9.032;2023-08-20T10:08:54;17.23;;;10.10;;
177;SDS011;77;48.792;9.032;2023-08-20T10:11:19;18.30;;;10.33;;
177;SDS011;77;48.792;9.032;2023-08-20T10:13:45;17.10;;;10.60;;
177;SDS011;77;48.792;9.032;2023-08-20T10:16:12;12.87;;;9.10;;
177;SDS011;77;48.792;9.032;2023-08-20T10:18:38;14.30;;;9.17;;
177;SDS011;77;48.792;9.032;2023-08-20T10:21:04;18.43;;;10.10;;
177;SDS011;77;48.792;9.032;2023-08-20T10:23:29;15.83;;;9.80;;
177;SDS011;77;48.792;9.032;2023-08-20T10:25:54;13.33;;;10.00;;
177;SDS011;77;48.792;9.032;2023-08-20T10:28:31;15.13;;;10.83;;
177;SDS011;77;48.792;9.032;2023-08-20T10:31:02;14.70;;;9.70;;
177;SDS011;77;48.792;9.032;2023-08-20T10:33:29;15.63;;;9.77;;
177;SDS011;77;48.792;9.032;2023-08-20T10:35:54;14.33;;;10.07;;
177;SDS011;77;48.792;9.032;2023-08-20T10:38:20;16.40;;;10.50;;
177;SDS011;77;48.792;9.032;2023-08-20T10:40:51;14.10;;;10.23;;
177;SDS011;77;48.792;9.032;2023-08-20T10:43:23;13.70;;;9.67;;
177;SDS011;77;48.792;9.032;2023-08-20T10:45:52;17.33;;;10.70;;
177;SDS011;77;48.792;9.032;2023-08-20T10:48:26;18.60;;;10.07;;
177;SDS011;77;48.792;9.032;2023-08-20T10:50:53;14.13;;;10.27;;
177;SDS011;77;48.792;9.032;2023-08-20T10:53:21;15.30;;;9.50;;
177;SDS011;77;48.792;9.032;2023-08-20T10:55:47;13.00;;;9.30;;
177;SDS011;77;48.792;9.032;2023-08-20T10:58:13;18.90;;;9.87;;
177;SDS011;77;48.792;9.032;2023-08-20T11:00:38;18.87;;;10.53;;
177;SDS011;77;48.792;9.032;2023-08-20T11:03:03;11.67;;;9.57;;
177;SDS011;77;48.792;9.032;2023-08-20T11:05:29;18.10;;;10.13;;
177;SDS011;77;48.792;9.032;2023-08-20T11:07:56;15.90;;;10.33;;
177;SDS011;77;48.792;9.032;2023-08-20T11:10:21;20.80;;;10.60;;
177;SDS011;77;48.792;9.032;2023-08-20T11:12:46;16.30;;;10.00;;
177;SDS011;77;48.792;9.032;2023-08-20T11:15:12;17.00;;;9.97;;
177;SDS011;77;48.792;9.032;2023-08-20T11:17:40;16.70;;;9.70;;
177;SDS011;77;48.792;9.032;2023-08-20T11:20:06;16.07;;;10.13;;
177;SDS011;77;48.792;9.032;2023-08-20T11:22:31;15.50;;;10.20;;
177;SDS011;77;48.792;9.032;2023-08-20T11:24:58;16.93;;;10.03;;
177;SDS011;77;48.792;9.032;2023-08-20T11:27:26;13.33;;;10.27;;
177;SDS011;77;48.792;9.032;2023-08-20T11:29:52;15.37;;;10.40;;
177;SDS011;77;48.792;9.032;2023-08-20T11:32:17;17.30;;;10.10;;
177;SDS011;77;48.792;9.032;2023-08-20T11:34:42;14.70;;;9.90;;
177;SDS011;77;48.792;9.032;2023-08-20T11:37:08;14.90;;;10.20;;
177;SDS011;77;48.792;9.032;2023-08-20T11:39:33;13.57;;;9.60;;
177;SDS011;77;48.792;9.032;2023-08-20T11:41:59;17.67;;;10.43;;
177;SDS011;77;48.792;9.032;2023-08-20T11:44:25;16.63;;;9.87;;
177;SDS011;77;48.792;9.032;2023-08-20T11:46:50;11.90;;;9.17;;
177;SDS011;77;48.792;9.032;2023-08-20T11:49:15;17.03;;;9.83;;
177;SDS011;77;48.792;9.032;2023-08-20T11:51:41;16.47;;;9.00;;
177;SDS011;77;48.792;9.032;2023-08-20T11:54:07;12.73;;;9.60;;
177;SDS011;77;48.792;9.032;2023-08-20T11:56:32;12.63;;;9.20;;
177;SDS011;77;48.792;9.032;2023-08-20T11:59:00;13.87;;;9.20;;
177;SDS011;77;48.792;9.032;2023-08-20T12:01:25;13.83;;;9.40;;
177;SDS011;77;48.792;9.032;2023-08-20T12:03:51;13.97;;;9.13;;
177;SDS011;77;48.792;9.032;2023-08-20T12:06:19;13.07;;;9.00;;
177;SDS011;77;48.792;9.032;2023-08-20T12:08:44;11.97;;;8.47;;
177;SDS011;77;48.792;9.032;2023-08-20T12:11:10;13.97;;;8.77;;
177;SDS011;77;48.792;9.032;2023-08-20T12:13:35;10.83;;;8.70;;
177;SDS011;77;48.792;9.032;2023-08-20T12:16:01;14.27;;;9.27;;
177;SDS011;77;48.792;9.032;2023-08-20T12:18:27;12.67;;;8.97;;
177;SDS011;77;48.792;9.032;2023-08-20T12:20:52;13.37;;;8.80;;
177;SDS011;77;48.792;9.032;2023-08-20T12:23:17;12.77;;;9.00;;
177;SDS011;77;48.792;9.032;2023-08-20T12:25:42;11.20;;;8.80;;
177;SDS011;77;48.792;9.032;2023-08-20T12:28:07;13.80;;;9.10;;
177;SDS011;77;48.792;9.032;2023-08-20T12:30:33;12.40;;;8.60;;
177;SDS011;77;48.792;9.032;2023-08-20T12:32:59;13.57;;;9.67;;
177;SDS011;77;48.792;9.032;2023-08-20T12:35:25;12.60;;;8.90;;
177;SDS011;77;48.792;9.032;2023-08-20T12:37:50;12.80;;;8.90;;
177;SDS011;77;48.792;9.032;2023-08-20T12:40:15;14.90;;;9.30;;
177;SDS011;77;48.792;9.032;2023-08-20T12:42:40;13.20;;;9.33;;
177;SDS011;77;48.792;9.032;2023-08-20T12:45:06;18.63;;;9.73;;
177;SDS011;77;48.792;9.032;2023-08-20T12:47:31;12.57;;;9.30;;
177;SDS011;77;48.792;9.032;2023-08-20T12:49:57;10.67;;;8.20;;
177;SDS011;77;48.792;9.032;2023-08-20T12:52:23;12.03;;;9.20;;
177;SDS011;77;48.792;9.032;2023-08-20T12:54:48;15.80;;;9.00;;
177;SDS011;77;48.792;9.032;2023-08-20T12:57:13;12.90;;;8.57;;
177;SDS011;77;48.792;9.032;2023-08-20T12:59:38;12.23;;;8.90;;
177;SDS011;77;48.792;9.032;2023-08-20T13:02:03;13.63;;;9.53;;
177;SDS011;77;48.792;9.032;2023-08-20T13:04:29;11.83;;;9.33;;
177;SDS011;77;48.792;9.032;2023-08-20T13:06:55;14.30;;;9.33;;
177;SDS011;77;48.792;9.032;2023-08-20T13:09:21;13.80;;;9.30;;
177;SDS011;77;48.792;9.032;2023-08-20T13:11:46;11.90;;;8.87;;
177;SDS011;77;48.792;9.032;2023-08-20T13:14:12;12.43;;;8.77;;
177;SDS011;77;48.792;9.032;2023-08-20T13:16:37;13.80;;;8.50;;
177;SDS011;77;48.792;9.032;2023-08-20T13:19:03;18.17;;;9.60;;
177;SDS011;77;48.792;9.032;2023-08-20T13:21:28;10.63;;;8.47;;
177;SDS011;77;48.792;9.032;2023-08-20T13:23:54;12.20;;;8.30;;
177;SDS011;77;48.792;9.032;2023-08-20T13:26:20;13.63;;;9.40;;
177;SDS011;77;48.792;9.032;2023-08-20T13:28:45;13.60;;;9.27;;
177;SDS011;77;48.792;9.032;2023-08-20T13:31:10;14.80;;;8.60;;
177;SDS011;77;48.792;9.032;2023-08-20T13:33:35;17.00;;;9.20;;
177;SDS011;77;48.792;9.032;2023-08-20T13:36:00;16.40;;;8.87;;
177;SDS011;77;48.792;9.032;2023-08-20T13:38:26;13.93;;;8.40;;
177;SDS011;77;48.792;9.032;2023-08-20T13:40:52;14.93;;;8.43;;
177;SDS011;77;48.792;9.032;2023-08-20T13:43:17;9.90;;;7.83;;
177;SDS011;77;48.792;9.032;2023-08-20T13:45:43;11.00;;;8.43;;
177;SDS011;77;48.792;9.032;2023-08-20T13:48:08;13.33;;;7.93;;
177;SDS011;77;48.792;9.032;2023-08-20T13:50:33;13.00;;;8.00;;
177;SDS011;77;48.792;9.032;2023-08-20T13:52:58;14.77;;;8.43;;
177;SDS011;77;48.792;9.032;2023-08-20T13:55:23;13.07;;;8.33;;
177;SDS011;77;48.792;9.032;2023-08-20T13:57:50;15.57;;;8.20;;
177;SDS011;77;48.792;9.032;2023-08-20T14:00:15;10.73;;;8.63;;
177;SDS011;77;48.792;9.032;2023-08-20T14:02:41;12.80;;;8.17;;
177;SDS011;77;48.792;9.032;2023-08-20T14:05:06;12.57;;;8.30;;
177;SDS011;77;48.792;9.032;2023-08-20T14:07:31;12.27;;;8.00;;
177;SDS011;77;48.792;9.032;2023-08-20T14:09:57;18.27;;;8.23;;
177;SDS011;77;48.792;9.032;2023-08-20T14:12:22;13.10;;;8.00;;
177;SDS011;77;48.792;9.032;2023-08-20T14:14:48;11.63;;;7.67;;
177;SDS011;77;48.792;9.032;2023-08-20T14:17:14;11.70;;;8.23;;
177;SDS011;77;48.792;9.032;2023-08-20T14:19:39;11.90;;;7.93;;
177;SDS011;77;48.792;9.032;2023-08-20T14:22:04;15.43;;;8.13;;
177;SDS011;77;48.792;9.032;2023-08-20T14:24:29;11.50;;;8.03;;
177;SDS011;77;48.792;9.032;2023-08-20T14:26:55;11.03;;;7.93;;
177;SDS011;77;48.792;9.032;2023-08-20T14:29:20;14.60;;;8.20;;
177;SDS011;77;48.792;9.032;2023-08-20T14:31:46;16.50;;;8.47;;
177;SDS011;77;48.792;9.032;2023-08-20T14:34:12;12.47;;;7.73;;
177;SDS011;77;48.792;9.032;2023-08-20T14:36:37;10.83;;;7.77;;
177;SDS011;77;48.792;9.032;2023-08-20T14:39:02;11.97;;;7.97;;
177;SDS011;77;48.792;9.032;2023-08-20T14:41:27;13.53;;;7.90;;
177;SDS011;77;48.792;9.032;2023-08-20T14:43:53;9.43;;;7.20;;
177;SDS011;77;48.792;9.032;2023-08-20T14:46:18;12.70;;;8.17;;
177;SDS011;77;48.792;9.032;2023-08-20T14:48:44;9.90;;;7.60;;
177;SDS011;77;48.792;9.032;2023-08-20T14:51:10;13.17;;;7.90;;
177;SDS011;77;48.792;9.032;2023-08-20T14:53:35;11.13;;;7.73;;
177;SDS011;77;48.792;9.032;2023-08-20T14:56:00;12.77;;;7.50;;
177;SDS011;77;48.792;9.032;2023-08-20T14:58:25;14.33;;;7.50;;
177;SDS011;77;48.792;9.032;2023-08-20T15:00:50;9.50;;;7.80;;
177;SDS011;77;48.792;9.032;2023-08-20T15:03:16;13.60;;;7.80;;
177;SDS011;77;48.792;9.032;2023-08-20T15:05:42;14.53;;;7.57;;
177;SDS011;77;48.792;9.032;2023-08-20T15:08:07;10.93;;;7.43;;
177;SDS011;77;48.792;9.032;2023-08-20T15:10:33;13.90;;;7.30;;
177;SDS011;77;48.792;9.032;2023-08-20T15:12:58;12.47;;;7.20;;
177;SDS011;77;48.792;9.032;2023-08-20T15:15:23;13.27;;;7.30;;
177;SDS011;77;48.792;9.032;2023-08-20T15:17:48;15.43;;;7.90;;
177;SDS011;77;48.792;9.032;2023-08-20T15:20:13;10.47;;;7.60;;
177;SDS011;77;48.792;9.032;2023-08-20T15:22:40;16.03;;;7.67;;
177;SDS011;77;48.792;9.032;2023-08-20T15:25:05;13.13;;;8.30;;